Time;durP1;ratioP1;P1;durP2;ratioP2;P2;SDS_P1;SDS_P2;PMS_P1;PMS_P2;Temp;Humidity;BMP_temperature;BMP_pressure;BME280_temperature;BME280_humidity;BME280_pressure;Samples;Min_cycle;Max_cycle;Signal;HPM_P1;HPM_P2
2024/03/05 00:01:14;;;;;;;132.48;23.88;;;12.40;93.60;;;;;;5069318;28;20033;-50
2024/03/05 00:03:40;;;;;;;135.60;22.95;;;12.30;93.60;;;;;;5051352;28;20033;-50
2024/03/05 00:06:06;;;;;;;119.63;20.83;;;12.30;93.60;;;;;;5051220;28;20032;-50
2024/03/05 00:08:32;;;;;;;109.30;21.63;;;12.30;93.50;;;;;;5034887;28;20025;-50
2024/03/05 00:10:59;;;;;;;123.03;22.40;;;12.30;93.60;;;;;;5034720;28;20029;-50
2024/03/05 00:13:25;;;;;;;111.35;22.40;;;12.30;93.60;;;;;;5034769;28;20025;-51
2024/03/05 00:15:52;;;;;;;112.65;20.38;;;12.20;93.50;;;;;;5051104;28;20033;-50
2024/03/05 00:18:18;;;;;;;99.60;20.48;;;12.30;93.60;;;;;;5035112;28;20089;-50
2024/03/05 00:20:46;;;;;;;97.93;19.98;;;12.30;93.60;;;;;;5069009;28;20053;-50
2024/03/05 00:23:12;;;;;;;115.25;20.33;;;12.30;93.60;;;;;;5051001;28;20037;-50
2024/03/05 00:25:38;;;;;;;103.78;20.27;;;12.30;93.60;;;;;;5068703;28;20037;-50
2024/03/05 00:28:04;;;;;;;114.90;20.58;;;12.30;93.70;;;;;;5034616;28;20029;-50
2024/03/05 00:30:30;;;;;;;122.13;22.85;;;12.20;93.70;;;;;;5068757;28;20021;-50
2024/03/05 00:32:56;;;;;;;79.03;20.45;;;12.20;93.70;;;;;;5068775;28;20079;-50
2024/03/05 00:35:22;;;;;;;98.30;21.73;;;12.20;93.70;;;;;;5050807;28;20025;-51
2024/03/05 00:37:47;;;;;;;107.00;19.67;;;12.20;93.70;;;;;;5034175;28;20045;-50
2024/03/05 00:40:13;;;;;;;84.10;17.85;;;12.10;93.80;;;;;;5068504;28;20420;-51
2024/03/05 00:42:39;;;;;;;82.28;17.35;;;12.10;93.70;;;;;;5050800;28;20361;-50
2024/03/05 00:45:08;;;;;;;86.95;19.80;;;12.10;93.70;;;;;;5034228;28;20025;-50
2024/03/05 00:47:34;;;;;;;99.38;18.25;;;12.10;93.70;;;;;;5034505;28;20028;-50
2024/03/05 00:50:01;;;;;;;78.88;18.42;;;12.10;93.70;;;;;;5033942;28;20029;-50
2024/03/05 00:52:27;;;;;;;82.50;18.10;;;12.10;93.70;;;;;;5033901;28;20025;-50
2024/03/05 00:54:52;;;;;;;105.82;21.35;;;12.10;93.70;;;;;;5050314;28;20025;-50
2024/03/05 00:57:18;;;;;;;93.53;17.83;;;12.10;93.80;;;;;;5049877;28;20021;-50
2024/03/05 00:59:44;;;;;;;73.00;16.13;;;12.10;93.80;;;;;;5068045;28;20490;-50
2024/03/05 01:02:09;;;;;;;74.70;16.65;;;12.10;93.80;;;;;;5034010;28;20033;-50
2024/03/05 01:04:35;;;;;;;76.00;17.33;;;12.10;93.80;;;;;;5050173;28;20032;-51
2024/03/05 01:07:01;;;;;;;79.63;17.45;;;12.10;93.80;;;;;;5033627;28;20032;-50
2024/03/05 01:09:27;;;;;;;79.28;16.70;;;12.00;93.80;;;;;;5033556;28;20023;-50
2024/03/05 01:11:53;;;;;;;85.20;16.55;;;12.00;93.80;;;;;;5050324;28;20048;-50
2024/03/05 01:14:19;;;;;;;74.85;17.42;;;12.00;93.80;;;;;;5067989;28;20025;-50
2024/03/05 01:16:45;;;;;;;74.30;16.48;;;12.00;93.80;;;;;;5050222;28;20029;-50
2024/03/05 01:19:13;;;;;;;77.38;16.67;;;12.00;93.80;;;;;;5050333;28;20025;-50
2024/03/05 01:21:41;;;;;;;72.65;15.90;;;12.00;93.90;;;;;;5050366;28;20463;-50
2024/03/05 01:24:09;;;;;;;72.85;16.52;;;11.90;93.90;;;;;;5050195;28;20029;-50
2024/03/05 01:26:38;;;;;;;64.75;16.75;;;11.90;93.90;;;;;;5017507;28;20029;-50
2024/03/05 01:29:05;;;;;;;83.28;17.42;;;12.00;93.90;;;;;;5033643;28;20040;-50
2024/03/05 01:31:32;;;;;;;78.97;17.70;;;11.90;93.90;;;;;;5033324;28;20026;-50
2024/03/05 01:33:58;;;;;;;62.75;15.80;;;11.90;93.90;;;;;;5017301;28;20025;-50
2024/03/05 01:36:25;;;;;;;72.72;15.23;;;11.90;93.90;;;;;;5067359;28;20040;-50
2024/03/05 01:38:51;;;;;;;70.93;16.45;;;11.90;93.90;;;;;;5049804;28;20063;-51
2024/03/05 01:41:17;;;;;;;64.63;15.77;;;11.90;93.90;;;;;;5049435;28;20050;-50
2024/03/05 01:43:44;;;;;;;69.03;15.25;;;11.90;93.90;;;;;;5033231;28;20033;-50
2024/03/05 01:46:13;;;;;;;66.20;16.15;;;11.90;93.90;;;;;;5067442;28;20059;-50
2024/03/05 01:48:41;;;;;;;85.90;15.63;;;11.90;93.90;;;;;;5034140;28;20021;-50
2024/03/05 01:51:06;;;;;;;73.07;15.18;;;11.90;94.00;;;;;;5016559;28;20027;-50
2024/03/05 01:53:32;;;;;;;68.88;15.65;;;11.80;93.90;;;;;;5033098;28;20033;-50
2024/03/05 01:55:59;;;;;;;63.03;15.57;;;11.80;94.00;;;;;;5032851;28;20085;-50
2024/03/05 01:58:25;;;;;;;62.80;15.82;;;11.80;94.00;;;;;;5049388;28;20093;-50
2024/03/05 02:00:51;;;;;;;47.67;14.23;;;11.80;93.90;;;;;;5032925;28;20048;-50
2024/03/05 02:03:17;;;;;;;56.85;13.77;;;11.90;94.00;;;;;;5049108;28;20033;-52
2024/03/05 02:05:43;;;;;;;52.53;13.38;;;11.80;93.90;;;;;;5032569;28;20048;-50
2024/03/05 02:08:09;;;;;;;55.58;15.30;;;11.90;93.90;;;;;;5032225;28;20035;-51
2024/03/05 02:10:34;;;;;;;58.92;14.52;;;11.80;93.90;;;;;;5032257;28;20108;-51
2024/03/05 02:13:00;;;;;;;55.33;14.40;;;11.80;93.90;;;;;;5049212;28;20417;-51
2024/03/05 02:15:26;;;;;;;52.35;13.95;;;11.80;93.90;;;;;;5049156;28;20085;-50
2024/03/05 02:17:52;;;;;;;68.55;15.05;;;11.80;93.90;;;;;;5033310;28;20064;-51
2024/03/05 02:20:17;;;;;;;48.58;13.25;;;11.80;94.00;;;;;;5033380;28;20029;-51
2024/03/05 02:22:43;;;;;;;50.42;13.82;;;11.70;94.00;;;;;;5066893;28;20025;-50
2024/03/05 02:25:09;;;;;;;43.00;13.05;;;11.70;94.00;;;;;;5032152;28;20033;-51
2024/03/05 02:27:36;;;;;;;48.85;13.13;;;11.70;94.00;;;;;;5066596;28;20049;-50
2024/03/05 02:30:02;;;;;;;46.30;14.65;;;11.70;94.00;;;;;;5066446;28;20059;-51
2024/03/05 02:32:28;;;;;;;47.50;13.10;;;11.70;94.00;;;;;;5066635;28;20031;-50
2024/03/05 02:34:54;;;;;;;52.70;13.00;;;11.70;94.00;;;;;;5066288;28;20040;-51
2024/03/05 02:37:21;;;;;;;57.83;13.95;;;11.70;94.00;;;;;;5048490;28;20045;-50
2024/03/05 02:39:47;;;;;;;47.75;12.95;;;11.70;94.00;;;;;;5048726;28;20150;-51
2024/03/05 02:42:13;;;;;;;57.08;14.82;;;11.70;94.10;;;;;;5048374;28;20029;-51
2024/03/05 02:44:39;;;;;;;61.03;14.23;;;11.70;94.00;;;;;;5066122;28;20460;-50
2024/03/05 02:47:07;;;;;;;49.70;13.57;;;11.60;94.00;;;;;;5032177;28;20025;-50
2024/03/05 02:49:34;;;;;;;55.95;13.40;;;11.60;94.00;;;;;;5048742;28;20025;-50
2024/03/05 02:52:00;;;;;;;51.15;14.23;;;11.60;94.00;;;;;;5032250;28;20025;-50
2024/03/05 02:54:25;;;;;;;48.25;12.85;;;11.60;94.10;;;;;;5031982;28;20032;-51
2024/03/05 02:56:51;;;;;;;40.53;12.55;;;11.60;94.10;;;;;;5048253;28;20129;-50
2024/03/05 02:59:17;;;;;;;45.88;13.25;;;11.60;94.40;;;;;;5066489;28;20025;-50
2024/03/05 03:01:48;;;;;;;41.10;11.52;;;11.60;94.10;;;;;;5066371;28;20044;-50
2024/03/05 03:04:15;;;;;;;43.58;12.40;;;11.60;94.10;;;;;;5065886;28;20033;-51
2024/03/05 03:06:41;;;;;;;48.78;12.68;;;11.60;94.10;;;;;;5066456;28;20051;-51
2024/03/05 03:09:07;;;;;;;41.92;12.48;;;11.60;94.10;;;;;;5048320;28;20109;-51
2024/03/05 03:11:34;;;;;;;37.15;12.05;;;11.50;94.20;;;;;;5032166;28;20021;-51
2024/03/05 03:14:00;;;;;;;40.80;13.77;;;11.60;94.20;;;;;;5031827;28;20092;-51
2024/03/05 03:16:26;;;;;;;45.00;13.15;;;11.60;94.20;;;;;;5066184;28;20079;-51
2024/03/05 03:18:51;;;;;;;50.60;13.60;;;11.60;94.20;;;;;;5066150;28;20033;-51
2024/03/05 03:21:17;;;;;;;48.90;13.38;;;11.50;94.20;;;;;;5035073;28;20029;-51
2024/03/05 03:23:44;;;;;;;41.40;11.95;;;11.50;94.20;;;;;;5070192;28;20442;-50
2024/03/05 03:26:11;;;;;;;38.90;12.43;;;11.50;94.10;;;;;;5035570;28;20040;-50
2024/03/05 03:28:37;;;;;;;40.95;12.23;;;11.50;94.20;;;;;;5052262;28;20022;-51
2024/03/05 03:31:05;;;;;;;31.73;11.35;;;11.50;94.50;;;;;;5052095;28;20033;-51
2024/03/05 03:33:31;;;;;;;37.40;11.50;;;11.50;94.20;;;;;;5070265;28;20037;-51
2024/03/05 03:35:57;;;;;;;37.58;12.52;;;11.50;94.20;;;;;;5051653;28;20116;-51
2024/03/05 03:38:23;;;;;;;37.45;11.00;;;11.50;94.20;;;;;;5069788;28;20037;-51
2024/03/05 03:40:49;;;;;;;38.28;11.18;;;11.50;94.20;;;;;;5035379;28;20029;-51
2024/03/05 03:43:15;;;;;;;32.85;11.18;;;11.50;94.30;;;;;;5051950;28;20044;-51
2024/03/05 03:45:41;;;;;;;33.47;11.50;;;11.40;94.30;;;;;;5051673;28;20434;-51
2024/03/05 03:48:07;;;;;;;28.88;10.77;;;11.50;94.30;;;;;;5051497;28;20021;-51
2024/03/05 03:50:32;;;;;;;33.47;11.52;;;11.40;94.30;;;;;;5035033;28;20021;-50
2024/03/05 03:52:58;;;;;;;33.05;11.63;;;11.40;94.30;;;;;;5069550;28;20180;-51
2024/03/05 03:55:24;;;;;;;38.88;11.40;;;11.40;94.30;;;;;;5035062;28;20029;-51
2024/03/05 03:57:51;;;;;;;31.33;11.38;;;11.40;94.40;;;;;;5034787;28;20029;-51
2024/03/05 04:00:17;;;;;;;31.70;11.88;;;11.40;94.70;;;;;;5051610;28;20036;-51
2024/03/05 04:02:42;;;;;;;29.23;11.57;;;11.40;94.40;;;;;;5069418;28;20512;-51
2024/03/05 04:05:09;;;;;;;41.55;12.20;;;11.40;94.40;;;;;;5051458;28;20051;-51
2024/03/05 04:07:37;;;;;;;34.90;10.77;;;11.40;94.50;;;;;;5069261;28;20025;-51
2024/03/05 04:10:07;;;;;;;36.28;11.38;;;11.40;94.40;;;;;;5018288;28;20074;-51
2024/03/05 04:12:33;;;;;;;36.35;11.55;;;11.30;94.40;;;;;;5034683;28;20025;-51
2024/03/05 04:15:00;;;;;;;35.88;12.00;;;11.30;94.50;;;;;;5069256;28;20032;-51
2024/03/05 04:17:26;;;;;;;28.30;11.05;;;11.30;94.50;;;;;;5051208;28;20028;-51
2024/03/05 04:19:52;;;;;;;29.65;10.73;;;11.30;94.60;;;;;;5034669;28;20033;-51
2024/03/05 04:22:18;;;;;;;32.80;11.35;;;11.30;94.60;;;;;;5051193;28;20033;-51
2024/03/05 04:24:52;;;;;;;27.85;11.93;;;11.30;94.60;;;;;;5051055;28;20078;-51
2024/03/05 04:27:19;;;;;;;28.60;10.48;;;11.30;94.60;;;;;;5052605;28;20028;-51
2024/03/05 04:29:47;;;;;;;32.45;11.45;;;11.20;94.60;;;;;;5069407;28;20096;-51
2024/03/05 04:32:14;;;;;;;33.20;11.55;;;11.20;94.70;;;;;;5068292;28;20031;-51
2024/03/05 04:34:42;;;;;;;31.27;11.15;;;11.20;94.70;;;;;;5069209;28;20035;-52
2024/03/05 04:37:09;;;;;;;26.17;10.68;;;11.20;94.70;;;;;;5068656;28;20040;-52
2024/03/05 04:39:34;;;;;;;36.17;11.80;;;11.20;94.70;;;;;;5050952;28;20468;-51
2024/03/05 04:42:00;;;;;;;32.88;11.05;;;11.20;94.70;;;;;;5017771;28;20033;-51
2024/03/05 04:44:28;;;;;;;29.70;11.63;;;11.20;94.80;;;;;;5033961;28;20035;-51
2024/03/05 04:46:56;;;;;;;29.83;10.95;;;11.20;94.80;;;;;;5050785;28;20036;-51
2024/03/05 04:49:21;;;;;;;30.25;11.10;;;11.20;94.80;;;;;;5068442;28;20021;-51
2024/03/05 04:51:49;;;;;;;26.55;11.23;;;11.20;94.70;;;;;;5050658;28;20032;-51
2024/03/05 04:54:15;;;;;;;29.92;10.27;;;11.10;94.70;;;;;;5034533;28;20021;-51
2024/03/05 04:56:40;;;;;;;32.63;10.63;;;11.20;94.70;;;;;;5050337;28;20029;-51
2024/03/05 04:59:06;;;;;;;36.20;9.73;;;11.20;94.80;;;;;;5033898;28;20464;-51
2024/03/05 05:01:32;;;;;;;29.50;11.13;;;11.10;94.80;;;;;;5050352;28;20029;-51
2024/03/05 05:03:57;;;;;;;28.80;11.10;;;11.20;94.80;;;;;;5068081;28;20032;-51
2024/03/05 05:06:23;;;;;;;25.80;10.90;;;11.10;94.80;;;;;;5068333;28;20029;-51
2024/03/05 05:08:49;;;;;;;20.88;9.75;;;11.10;94.90;;;;;;5034045;28;20032;-51
2024/03/05 05:11:14;;;;;;;27.70;11.52;;;11.10;94.90;;;;;;5033713;28;20025;-51
2024/03/05 05:13:40;;;;;;;30.10;10.40;;;11.10;94.90;;;;;;5050103;28;20087;-51
2024/03/05 05:16:08;;;;;;;32.45;11.82;;;11.10;95.00;;;;;;5033586;28;20100;-51
2024/03/05 05:18:34;;;;;;;25.73;10.35;;;11.10;94.90;;;;;;5050298;28;20029;-51
2024/03/05 05:21:00;;;;;;;24.90;10.32;;;11.10;94.90;;;;;;5033591;28;20037;-51
2024/03/05 05:23:26;;;;;;;32.47;11.73;;;11.10;95.00;;;;;;5033534;28;20040;-51
2024/03/05 05:25:52;;;;;;;22.38;9.90;;;11.10;95.00;;;;;;5049607;28;20490;-51
2024/03/05 05:28:18;;;;;;;23.02;10.23;;;11.10;95.00;;;;;;5050232;28;20100;-52
2024/03/05 05:30:44;;;;;;;25.23;10.30;;;11.10;95.00;;;;;;5050101;28;20032;-51
2024/03/05 05:33:09;;;;;;;21.65;10.60;;;11.10;95.00;;;;;;5049655;28;20028;-51
2024/03/05 05:35:37;;;;;;;24.48;10.95;;;11.10;95.00;;;;;;5067592;28;20036;-54
2024/03/05 05:38:03;;;;;;;27.42;10.43;;;11.10;95.00;;;;;;5067453;28;20059;-51
2024/03/05 05:40:29;;;;;;;29.48;10.68;;;11.10;95.00;;;;;;5049718;28;20028;-51
2024/03/05 05:42:55;;;;;;;24.42;10.20;;;11.10;95.00;;;;;;5049487;28;20055;-51
2024/03/05 05:45:22;;;;;;;22.08;10.05;;;11.10;95.00;;;;;;5067104;28;20063;-51
2024/03/05 05:47:53;;;;;;;30.30;10.35;;;11.10;95.00;;;;;;5049638;28;20036;-51
2024/03/05 05:50:23;;;;;;;26.88;10.13;;;11.10;95.00;;;;;;5017974;28;20068;-51
2024/03/05 05:52:50;;;;;;;28.23;11.18;;;11.10;95.10;;;;;;5067198;28;20033;-51
2024/03/05 05:55:22;;;;;;;39.08;12.05;;;11.10;95.10;;;;;;5032869;28;20556;-51
2024/03/05 05:57:48;;;;;;;27.20;11.27;;;11.10;95.20;;;;;;5033168;28;20032;-51
2024/03/05 06:03:18;;;;;;;26.10;11.13;;;11.10;95.20;;;;;;5011856;28;20164;-51
2024/03/05 06:05:46;;;;;;;24.13;10.65;;;11.10;95.30;;;;;;5067059;28;20051;-51
2024/03/05 06:08:13;;;;;;;25.20;10.48;;;11.10;95.30;;;;;;5016741;28;20036;-51
2024/03/05 06:10:41;;;;;;;32.80;11.07;;;11.10;95.30;;;;;;5032649;28;20020;-51
2024/03/05 06:13:07;;;;;;;31.50;11.18;;;11.10;95.40;;;;;;5049219;28;20032;-51
2024/03/05 06:15:33;;;;;;;30.88;11.30;;;11.10;95.40;;;;;;5048766;28;20403;-51
2024/03/05 06:17:59;;;;;;;36.05;12.27;;;11.10;95.30;;;;;;5048886;28;20029;-51
2024/03/05 06:20:27;;;;;;;29.55;11.00;;;11.10;95.60;;;;;;5048954;28;20032;-51
2024/03/05 06:22:52;;;;;;;44.20;12.35;;;11.10;95.40;;;;;;5032796;28;20112;-51
2024/03/05 06:25:18;;;;;;;31.30;12.43;;;11.10;95.40;;;;;;5048652;28;20498;-51
2024/03/05 06:27:44;;;;;;;32.13;11.55;;;11.10;95.50;;;;;;5032143;28;20029;-51
2024/03/05 06:30:17;;;;;;;33.05;12.13;;;11.10;95.50;;;;;;5032396;28;20032;-51
2024/03/05 06:32:47;;;;;;;44.58;12.50;;;11.10;95.50;;;;;;5017361;28;20033;-52
2024/03/05 06:35:19;;;;;;;45.35;14.52;;;11.00;95.50;;;;;;5066594;28;20048;-51
2024/03/05 06:37:46;;;;;;;44.72;13.88;;;11.00;95.60;;;;;;5032433;28;20045;-52
2024/03/05 06:40:13;;;;;;;53.35;14.23;;;11.00;95.80;;;;;;5066240;28;20029;-51
2024/03/05 06:42:43;;;;;;;59.30;14.18;;;11.10;96.00;;;;;;5048756;28;20033;-52
2024/03/05 06:45:09;;;;;;;93.85;18.13;;;11.00;96.00;;;;;;5048547;28;20033;-51
2024/03/05 06:47:46;;;;;;;64.85;15.68;;;11.00;96.00;;;;;;5033751;28;20032;-52
2024/03/05 06:50:19;;;;;;;63.30;14.77;;;11.00;96.00;;;;;;5011800;28;20083;-52
2024/03/05 06:58:16;;;;;;;63.60;15.48;;;11.00;96.00;;;;;;5044441;28;20063;-51
2024/03/05 07:00:43;;;;;;;53.13;15.38;;;11.00;96.00;;;;;;5010567;28;20025;-51
2024/03/05 07:03:12;;;;;;;61.67;15.77;;;11.00;96.10;;;;;;5027733;28;20034;-51
2024/03/05 07:05:38;;;;;;;56.40;14.40;;;11.00;96.10;;;;;;5012485;28;20041;-52
2024/03/05 07:08:05;;;;;;;45.63;14.27;;;11.00;96.10;;;;;;5045155;28;20036;-52
2024/03/05 07:10:33;;;;;;;52.33;14.50;;;11.00;96.10;;;;;;5010497;28;20037;-52
2024/03/05 07:12:59;;;;;;;40.97;14.02;;;11.00;96.10;;;;;;5026545;28;20034;-52
2024/03/05 07:15:25;;;;;;;41.60;13.07;;;11.00;96.10;;;;;;5009580;28;20087;-52
2024/03/05 07:17:50;;;;;;;47.35;13.88;;;11.00;96.10;;;;;;5025973;28;20037;-52
2024/03/05 07:20:24;;;;;;;45.75;14.45;;;11.00;96.20;;;;;;5009536;28;20060;-53
2024/03/05 07:22:51;;;;;;;54.97;14.07;;;11.00;96.20;;;;;;5044245;28;20049;-52
2024/03/05 07:25:17;;;;;;;46.92;13.90;;;11.00;96.20;;;;;;5028328;28;20054;-52
2024/03/05 07:27:49;;;;;;;48.70;13.95;;;11.00;96.20;;;;;;5028186;28;20040;-52
2024/03/05 07:30:15;;;;;;;41.13;13.45;;;11.00;96.20;;;;;;5028580;28;20025;-52
2024/03/05 07:32:47;;;;;;;48.78;14.40;;;11.00;96.30;;;;;;5028262;28;20026;-52
2024/03/05 07:35:17;;;;;;;38.08;13.55;;;11.00;96.30;;;;;;5045744;28;20029;-52
2024/03/05 07:37:45;;;;;;;44.38;15.13;;;11.00;96.40;;;;;;5027991;28;20048;-52
2024/03/05 07:40:18;;;;;;;38.20;13.05;;;11.00;96.40;;;;;;5039367;28;20445;-52
2024/03/05 07:42:47;;;;;;;43.38;13.38;;;10.90;96.50;;;;;;5064252;28;20036;-52
2024/03/05 07:45:15;;;;;;;46.47;13.20;;;11.00;96.50;;;;;;5047956;28;20048;-52
2024/03/05 07:47:44;;;;;;;53.42;13.55;;;10.90;96.50;;;;;;5047236;28;20029;-52
2024/03/05 07:50:14;;;;;;;38.20;12.77;;;10.90;96.50;;;;;;5047743;28;20049;-52
2024/03/05 07:52:40;;;;;;;40.45;12.05;;;10.90;96.60;;;;;;5048163;28;20023;-52
2024/03/05 07:55:08;;;;;;;50.20;13.20;;;10.90;96.70;;;;;;5025854;28;20029;-52
2024/03/05 07:57:37;;;;;;;38.28;12.63;;;10.90;96.70;;;;;;5028099;28;20026;-52
2024/03/05 08:00:08;;;;;;;26.63;11.57;;;11.00;96.70;;;;;;5013746;28;20029;-52
2024/03/05 08:02:35;;;;;;;30.38;12.13;;;10.90;96.70;;;;;;5059140;28;20029;-53
2024/03/05 08:05:01;;;;;;;34.83;10.88;;;10.80;96.70;;;;;;5022072;28;20061;-52
2024/03/05 08:07:26;;;;;;;35.53;11.57;;;10.80;96.70;;;;;;5006285;28;20048;-52
2024/03/05 08:09:52;;;;;;;32.28;12.05;;;10.80;96.70;;;;;;5029322;28;20029;-52
2024/03/05 08:12:18;;;;;;;28.10;10.10;;;10.80;96.70;;;;;;5047028;28;20017;-52
2024/03/05 08:14:43;;;;;;;26.60;9.90;;;10.80;96.70;;;;;;5022582;28;20038;-52
2024/03/05 08:17:09;;;;;;;41.63;9.98;;;10.80;96.60;;;;;;5055515;28;20138;-52
2024/03/05 08:19:35;;;;;;;21.65;9.52;;;10.80;96.60;;;;;;5026859;28;20495;-52
2024/03/05 08:22:03;;;;;;;40.47;10.43;;;10.80;96.50;;;;;;5047265;28;20032;-52
2024/03/05 08:24:28;;;;;;;30.05;9.32;;;10.80;96.50;;;;;;5055846;28;20028;-55
2024/03/05 08:26:54;;;;;;;21.02;9.20;;;10.80;96.50;;;;;;5046514;28;20101;-52
2024/03/05 08:29:20;;;;;;;32.83;9.82;;;10.70;96.50;;;;;;5030877;28;20033;-52
2024/03/05 08:31:46;;;;;;;44.38;9.25;;;10.70;96.50;;;;;;5048546;28;20033;-52
2024/03/05 08:34:12;;;;;;;31.00;8.38;;;10.70;96.60;;;;;;5016415;28;20032;-52
2024/03/05 08:36:39;;;;;;;26.77;8.20;;;10.70;96.50;;;;;;5058481;28;20037;-52
2024/03/05 08:39:15;;;;;;;17.70;7.13;;;10.70;96.50;;;;;;5030512;28;20036;-52
2024/03/05 08:41:41;;;;;;;28.65;8.18;;;10.70;96.50;;;;;;5058604;28;20407;-52
2024/03/05 08:44:07;;;;;;;40.60;8.20;;;10.70;96.40;;;;;;5052224;28;20094;-52
2024/03/05 08:46:33;;;;;;;33.83;8.55;;;10.70;96.40;;;;;;5030712;28;20128;-52
2024/03/05 08:48:58;;;;;;;28.92;8.63;;;10.70;96.40;;;;;;5049978;28;20033;-52
2024/03/05 08:51:24;;;;;;;27.50;8.52;;;10.70;96.30;;;;;;5032139;28;20029;-52
2024/03/05 08:53:50;;;;;;;26.27;7.38;;;10.70;96.30;;;;;;5033137;28;20082;-52
2024/03/05 08:56:16;;;;;;;36.40;8.70;;;10.70;96.40;;;;;;5031526;28;20033;-52
2024/03/05 08:58:43;;;;;;;39.58;8.85;;;10.70;96.30;;;;;;5057937;28;20029;-52
2024/03/05 09:01:12;;;;;;;41.75;9.55;;;10.70;96.60;;;;;;5050663;28;20029;-52
2024/03/05 09:03:38;;;;;;;34.22;8.45;;;10.70;96.30;;;;;;5049274;28;20021;-52
2024/03/05 09:06:05;;;;;;;36.13;8.77;;;10.70;96.30;;;;;;5031723;28;20025;-52
2024/03/05 09:08:32;;;;;;;37.50;8.30;;;10.70;96.30;;;;;;5049000;28;20037;-52
2024/03/05 09:10:57;;;;;;;43.65;7.82;;;10.70;96.30;;;;;;5015078;28;20036;-52
2024/03/05 09:13:23;;;;;;;44.15;9.95;;;10.70;96.20;;;;;;5048755;28;20020;-52
2024/03/05 09:15:49;;;;;;;57.45;9.25;;;10.70;96.20;;;;;;5055882;28;20413;-52
2024/03/05 09:18:16;;;;;;;48.42;9.10;;;10.80;96.10;;;;;;5048954;28;20021;-52
2024/03/05 09:20:42;;;;;;;37.45;8.35;;;10.80;96.00;;;;;;5042450;28;20044;-52
2024/03/05 09:23:08;;;;;;;43.88;9.15;;;10.80;96.00;;;;;;5039426;28;20090;-52
2024/03/05 09:25:36;;;;;;;55.80;9.25;;;10.80;96.00;;;;;;5042027;28;20085;-52
2024/03/05 09:28:01;;;;;;;56.55;8.65;;;10.90;96.00;;;;;;5048012;28;20040;-52
2024/03/05 09:30:28;;;;;;;52.50;9.35;;;10.90;95.90;;;;;;5026806;28;20043;-52
2024/03/05 09:32:53;;;;;;;66.53;10.13;;;10.90;95.90;;;;;;5037342;28;20052;-52
2024/03/05 09:35:19;;;;;;;63.00;10.63;;;10.90;95.90;;;;;;5043448;28;20029;-52
2024/03/05 09:37:47;;;;;;;85.00;11.23;;;10.90;95.90;;;;;;5060431;28;20101;-52
2024/03/05 09:40:16;;;;;;;86.28;12.27;;;10.90;95.90;;;;;;5036742;28;20029;-52
2024/03/05 09:42:42;;;;;;;91.38;12.68;;;11.00;95.90;;;;;;5030633;28;20075;-52
2024/03/05 09:45:09;;;;;;;87.18;11.95;;;11.00;95.90;;;;;;5023476;28;20143;-52
2024/03/05 09:47:37;;;;;;;88.68;11.60;;;11.10;96.00;;;;;;5032141;28;20025;-58
2024/03/05 09:50:06;;;;;;;93.68;11.73;;;11.10;95.90;;;;;;5021739;28;20060;-58
2024/03/05 09:52:32;;;;;;;89.05;13.18;;;11.10;95.70;;;;;;5013871;28;20032;-58
2024/03/05 09:54:59;;;;;;;94.47;13.00;;;11.10;95.70;;;;;;5029085;28;20092;-58
2024/03/05 09:57:25;;;;;;;73.85;10.85;;;11.10;95.60;;;;;;5021017;28;20029;-58
2024/03/05 09:59:50;;;;;;;94.95;11.63;;;11.20;95.60;;;;;;5045679;28;20055;-58
2024/03/05 10:02:16;;;;;;;78.85;11.82;;;11.20;95.50;;;;;;5030094;28;20021;-58
2024/03/05 10:04:42;;;;;;;71.93;11.65;;;11.20;95.50;;;;;;5015204;28;20025;-58
2024/03/05 10:07:07;;;;;;;67.45;11.10;;;11.30;95.50;;;;;;5040948;28;20108;-58
2024/03/05 10:09:35;;;;;;;82.75;12.35;;;11.30;95.40;;;;;;5066032;28;20076;-57
2024/03/05 10:12:04;;;;;;;72.32;11.25;;;11.30;95.40;;;;;;5050430;28;20053;-58
2024/03/05 10:14:31;;;;;;;96.88;11.88;;;11.30;95.40;;;;;;5042645;28;20013;-57
2024/03/05 10:17:02;;;;;;;74.45;11.82;;;11.40;95.50;;;;;;5013892;28;20028;-58
2024/03/05 10:19:28;;;;;;;59.17;9.73;;;11.40;95.50;;;;;;5029250;28;20083;-58
2024/03/05 10:21:53;;;;;;;66.18;10.55;;;11.40;95.60;;;;;;5026950;28;20056;-58
2024/03/05 10:24:34;;;;;;;65.30;10.60;;;11.40;95.30;;;;;;5027083;28;20047;-58
2024/03/05 10:26:59;;;;;;;75.47;10.68;;;11.40;95.40;;;;;;5031569;28;20017;-59
2024/03/05 10:29:37;;;;;;;63.35;10.23;;;11.50;95.40;;;;;;5011614;28;20031;-58
2024/03/05 10:32:04;;;;;;;58.78;9.30;;;11.50;95.30;;;;;;5028397;28;20215;-58
2024/03/05 10:34:30;;;;;;;70.20;10.32;;;11.50;95.30;;;;;;5047960;28;20024;-58
2024/03/05 10:37:04;;;;;;;52.97;9.07;;;11.60;95.30;;;;;;5021927;28;20029;-58
2024/03/05 10:39:30;;;;;;;71.82;9.45;;;11.60;95.40;;;;;;5022185;28;20021;-58
2024/03/05 10:41:59;;;;;;;84.93;11.10;;;11.60;95.40;;;;;;5061427;28;20051;-58
2024/03/05 10:44:25;;;;;;;45.50;8.35;;;11.50;95.40;;;;;;5021234;28;20054;-58
2024/03/05 10:46:52;;;;;;;52.90;9.00;;;11.60;95.40;;;;;;5030401;28;20479;-58
2024/03/05 10:49:19;;;;;;;61.35;9.85;;;11.60;95.30;;;;;;5018973;28;20104;-57
2024/03/05 10:51:45;;;;;;;59.15;9.52;;;11.60;95.30;;;;;;5048099;28;20017;-58
2024/03/05 10:54:10;;;;;;;54.33;8.90;;;11.60;95.40;;;;;;5057005;28;20088;-58
2024/03/05 10:56:36;;;;;;;58.70;9.07;;;11.60;95.30;;;;;;5055290;28;20035;-52
2024/03/05 11:02:09;;;;;;;45.15;7.93;;;11.60;95.30;;;;;;4986708;28;20039;-52
2024/03/05 11:04:34;;;;;;;37.60;8.20;;;11.70;95.30;;;;;;5018886;28;20048;-52
2024/03/05 11:07:00;;;;;;;44.50;7.38;;;11.70;95.30;;;;;;5020743;28;20035;-54
2024/03/05 11:09:26;;;;;;;48.95;8.00;;;11.70;95.30;;;;;;5027242;28;20061;-52
2024/03/05 11:12:13;;;;;;;47.78;7.68;;;11.70;95.30;;;;;;5047390;28;20035;-52
2024/03/05 11:14:39;;;;;;;41.50;7.30;;;11.70;95.30;;;;;;5063363;28;20556;-52
2024/03/05 11:17:12;;;;;;;44.88;7.53;;;11.70;95.40;;;;;;5027947;28;20026;-52
2024/03/05 11:19:43;;;;;;;41.20;7.32;;;11.70;95.40;;;;;;5015016;28;20037;-52
2024/03/05 11:22:23;;;;;;;42.10;8.00;;;11.70;95.40;;;;;;5047378;28;20017;-52
2024/03/05 11:25:02;;;;;;;65.63;11.75;;;11.60;95.50;;;;;;5047510;28;20025;-52
2024/03/05 11:27:31;;;;;;;74.43;10.50;;;11.70;95.40;;;;;;5064605;28;20029;-52
2024/03/05 11:30:08;;;;;;;82.10;11.35;;;11.70;95.50;;;;;;5030260;28;20021;-52
2024/03/05 11:32:35;;;;;;;216.55;21.13;;;11.70;95.40;;;;;;5012382;28;20032;-52
2024/03/05 11:35:01;;;;;;;134.02;14.40;;;11.70;95.40;;;;;;5063004;28;20268;-52
2024/03/05 11:37:27;;;;;;;103.93;14.77;;;11.70;95.30;;;;;;5046397;28;20045;-52
2024/03/05 11:39:52;;;;;;;94.55;12.00;;;11.70;95.40;;;;;;5035511;28;20035;-52
2024/03/05 11:42:19;;;;;;;74.85;10.27;;;11.70;95.20;;;;;;5066183;28;20029;-52
2024/03/05 11:44:49;;;;;;;78.88;11.77;;;11.80;95.20;;;;;;5037074;28;20037;-52
2024/03/05 11:47:22;;;;;;;78.00;11.60;;;11.80;95.20;;;;;;5068423;28;20036;-52
2024/03/05 11:49:48;;;;;;;61.95;10.90;;;11.80;95.20;;;;;;5030587;28;20033;-52
2024/03/05 11:52:14;;;;;;;65.25;9.88;;;11.80;95.20;;;;;;5049390;28;20467;-52
2024/03/05 11:54:39;;;;;;;66.60;9.65;;;11.80;95.20;;;;;;5034289;28;20033;-52
2024/03/05 11:57:07;;;;;;;70.97;9.63;;;11.80;95.20;;;;;;5045803;28;20036;-52
2024/03/05 11:59:36;;;;;;;75.55;10.60;;;11.80;95.30;;;;;;5067199;28;20155;-52
2024/03/05 12:02:11;;;;;;;52.60;9.38;;;11.80;95.30;;;;;;5050633;28;20021;-52
2024/03/05 12:04:37;;;;;;;54.03;9.45;;;11.80;95.20;;;;;;5048356;28;20021;-52
2024/03/05 12:07:07;;;;;;;85.80;11.55;;;11.70;95.10;;;;;;5044873;28;20108;-52
2024/03/05 12:09:37;;;;;;;55.53;8.95;;;11.70;95.10;;;;;;5066274;28;20036;-52
2024/03/05 12:12:09;;;;;;;73.40;10.82;;;11.70;94.90;;;;;;5034127;28;20025;-52
2024/03/05 12:14:39;;;;;;;84.55;12.13;;;11.70;95.00;;;;;;5046422;28;20021;-52
2024/03/05 12:17:07;;;;;;;83.82;10.23;;;11.70;94.90;;;;;;5042058;28;20032;-52
2024/03/05 12:19:37;;;;;;;80.22;10.93;;;11.70;94.80;;;;;;5062255;28;20075;-52
2024/03/05 12:22:03;;;;;;;61.10;8.43;;;11.70;94.70;;;;;;5029375;28;20067;-52
2024/03/05 12:24:29;;;;;;;58.40;8.57;;;11.70;94.50;;;;;;5041440;28;20020;-52
2024/03/05 12:26:55;;;;;;;61.90;9.48;;;11.70;94.40;;;;;;5038909;28;20060;-52
2024/03/05 12:29:36;;;;;;;73.13;11.10;;;11.70;94.40;;;;;;5031783;28;20014;-52
2024/03/05 12:32:08;;;;;;;70.75;9.55;;;11.70;94.40;;;;;;5042809;28;20025;-52
2024/03/05 12:34:34;;;;;;;50.70;8.63;;;11.60;94.40;;;;;;5052757;28;20041;-53
2024/03/05 12:37:00;;;;;;;73.05;9.43;;;11.70;94.30;;;;;;5053621;28;20545;-52
2024/03/05 12:39:28;;;;;;;56.78;7.55;;;11.60;94.20;;;;;;5055986;28;20421;-52